createdAt,value
2024-04-26T00:00:51.314Z,2.78
2024-04-26T00:01:51.301Z,2.78
2024-04-26T00:02:51.401Z,2.77
2024-04-26T00:03:51.353Z,2.77
2024-04-26T00:04:51.323Z,2.78
2024-04-26T00:05:51.423Z,2.81
2024-04-26T00:06:51.315Z,2.79
2024-04-26T00:07:51.305Z,2.75
2024-04-26T00:08:51.392Z,2.77
2024-04-26T00:09:51.321Z,2.73
2024-04-26T00:10:51.318Z,2.74
2024-04-26T00:11:51.394Z,2.71
2024-04-26T00:12:51.341Z,2.75
2024-04-26T00:13:51.309Z,2.70
2024-04-26T00:14:51.342Z,2.77
2024-04-26T00:15:51.339Z,2.68
2024-04-26T00:16:51.450Z,2.71
2024-04-26T00:17:51.355Z,2.74
2024-04-26T00:18:51.413Z,2.69
2024-04-26T00:19:51.391Z,2.70
2024-04-26T00:20:51.487Z,2.66
2024-04-26T00:21:51.430Z,2.64
2024-04-26T00:22:51.443Z,2.69
2024-04-26T00:23:51.564Z,2.68
2024-04-26T00:24:51.534Z,2.61
2024-04-26T00:25:51.492Z,2.62
2024-04-26T00:26:51.575Z,2.63
2024-04-26T00:27:51.519Z,2.63
2024-04-26T00:28:51.539Z,2.64
2024-04-26T00:29:51.548Z,2.62
2024-04-26T00:30:51.524Z,2.57
2024-04-26T00:31:51.602Z,2.55
2024-04-26T00:32:51.637Z,2.58
2024-04-26T00:33:51.637Z,2.56
2024-04-26T00:34:51.559Z,2.57
2024-04-26T00:35:51.586Z,2.55
2024-04-26T00:36:51.542Z,2.53
2024-04-26T00:37:51.549Z,2.51
2024-04-26T00:38:51.576Z,2.52
2024-04-26T00:39:51.539Z,2.46
2024-04-26T00:40:51.570Z,2.43
2024-04-26T00:41:51.559Z,2.48
2024-04-26T00:42:51.559Z,2.44
2024-04-26T00:43:51.538Z,2.43
2024-04-26T00:44:51.635Z,2.44
2024-04-26T00:45:51.558Z,2.42
2024-04-26T00:46:51.536Z,2.42
2024-04-26T00:47:51.629Z,2.42
2024-04-26T00:48:51.792Z,2.41
2024-04-26T00:49:51.532Z,2.40
2024-04-26T00:50:51.673Z,2.38
2024-04-26T00:51:51.548Z,2.44
2024-04-26T00:52:51.546Z,2.36
2024-04-26T00:53:51.615Z,2.36
2024-04-26T00:54:51.586Z,2.34
2024-04-26T00:55:51.546Z,2.35
2024-04-26T00:56:51.579Z,2.29
2024-04-26T00:57:51.601Z,2.30
2024-04-26T00:58:51.563Z,2.33
2024-04-26T00:59:51.566Z,2.28
2024-04-26T01:00:51.595Z,2.25
2024-04-26T01:01:51.593Z,2.28
2024-04-26T01:02:51.597Z,2.25
2024-04-26T01:03:51.592Z,2.25
2024-04-26T01:04:51.590Z,2.23
2024-04-26T01:05:51.616Z,2.22
2024-04-26T01:06:51.624Z,2.19
2024-04-26T01:07:51.621Z,2.22
2024-04-26T01:08:51.608Z,2.20
2024-04-26T01:09:51.584Z,2.18
2024-04-26T01:10:51.707Z,2.18
2024-04-26T01:11:51.851Z,2.19
2024-04-26T01:12:51.810Z,2.19
2024-04-26T01:13:51.818Z,2.14
2024-04-26T01:14:51.870Z,2.15
2024-04-26T01:15:51.858Z,2.14
2024-04-26T01:16:51.937Z,2.09
2024-04-26T01:17:51.988Z,2.11
2024-04-26T01:18:52.170Z,2.11
2024-04-26T01:19:51.985Z,2.06
2024-04-26T01:20:52.235Z,2.09
2024-04-26T01:21:52.050Z,2.05
2024-04-26T01:22:52.087Z,2.07
2024-04-26T01:23:52.170Z,2.09
2024-04-26T01:24:52.104Z,2.04
2024-04-26T01:25:52.128Z,2.04
2024-04-26T01:26:52.213Z,2.03
2024-04-26T01:27:52.167Z,2.04
2024-04-26T01:28:52.199Z,2.07
2024-04-26T01:29:52.267Z,2.02
2024-04-26T01:30:52.237Z,2.06
2024-04-26T01:31:52.307Z,2.05
2024-04-26T01:32:52.359Z,2.01
2024-04-26T01:33:52.323Z,2.08
2024-04-26T01:34:52.363Z,2.06
2024-04-26T01:35:52.384Z,2.05
2024-04-26T01:36:52.426Z,2.05
2024-04-26T01:37:52.398Z,2.05
2024-04-26T01:38:52.477Z,2.01
2024-04-26T01:39:52.446Z,2.04
2024-04-26T01:40:52.516Z,2.05
2024-04-26T01:41:52.532Z,2.03
2024-04-26T01:42:52.568Z,2.02
2024-04-26T01:43:52.554Z,2.05
2024-04-26T01:44:52.622Z,2.05
2024-04-26T01:45:52.575Z,1.99
2024-04-26T01:46:52.692Z,2.04
2024-04-26T01:47:52.700Z,2.07
2024-04-26T01:48:52.667Z,2.04
2024-04-26T01:49:52.684Z,2.03
2024-04-26T01:50:52.721Z,2.05
2024-04-26T01:51:52.741Z,2.03
2024-04-26T01:52:52.776Z,2.06
2024-04-26T01:53:52.787Z,1.98
2024-04-26T01:54:52.799Z,2.10
2024-04-26T01:55:52.814Z,2.03
2024-04-26T01:56:52.938Z,2.06
2024-04-26T01:57:52.906Z,2.01
2024-04-26T01:58:52.891Z,2.04
2024-04-26T01:59:52.930Z,2.05
2024-04-26T02:00:52.966Z,2.03
2024-04-26T02:01:52.967Z,2.06
2024-04-26T02:02:53.122Z,2.06
2024-04-26T02:03:53.088Z,2.00
2024-04-26T02:04:53.030Z,2.05
2024-04-26T02:05:53.075Z,2.04
2024-04-26T02:06:53.094Z,2.07
2024-04-26T02:07:53.104Z,2.01
2024-04-26T02:08:53.153Z,2.03
2024-04-26T02:09:53.141Z,2.04
2024-04-26T02:10:53.239Z,2.03
2024-04-26T02:11:53.200Z,2.02
2024-04-26T02:12:53.232Z,2.01
2024-04-26T02:13:53.291Z,2.07
2024-04-26T02:14:53.302Z,2.01
2024-04-26T02:15:53.287Z,2.07
2024-04-26T02:16:53.342Z,2.05
2024-04-26T02:17:53.365Z,2.04
2024-04-26T02:18:53.638Z,2.05
2024-04-26T02:19:53.364Z,2.03
2024-04-26T02:20:53.417Z,1.98
2024-04-26T02:21:53.408Z,2.02
2024-04-26T02:22:53.466Z,2.02
2024-04-26T02:23:53.486Z,2.00
2024-04-26T02:24:53.472Z,2.00
2024-04-26T02:25:53.544Z,2.03
2024-04-26T02:26:53.652Z,2.04
2024-04-26T02:27:53.571Z,2.02
2024-04-26T02:28:53.570Z,2.00
2024-04-26T02:29:53.669Z,1.95
2024-04-26T02:30:53.612Z,1.97
2024-04-26T02:31:53.654Z,2.02
2024-04-26T02:32:53.814Z,1.99
2024-04-26T02:33:53.816Z,2.01
2024-04-26T02:34:53.646Z,1.99
2024-04-26T02:35:53.713Z,1.98
2024-04-26T02:36:53.657Z,2.01
2024-04-26T02:37:53.679Z,1.96
2024-04-26T02:38:53.752Z,1.99
2024-04-26T02:39:53.648Z,1.99
2024-04-26T02:40:53.675Z,1.98
2024-04-26T02:41:53.701Z,1.98
2024-04-26T02:42:53.692Z,1.98
2024-04-26T02:43:53.680Z,1.96
2024-04-26T02:44:53.719Z,1.93
2024-04-26T02:45:53.691Z,1.96
2024-04-26T02:46:53.706Z,2.03
2024-04-26T02:47:53.731Z,1.96
2024-04-26T02:48:53.790Z,1.96
2024-04-26T02:49:53.687Z,1.94
2024-04-26T02:50:53.726Z,1.94
2024-04-26T02:51:53.689Z,1.93
2024-04-26T02:52:53.707Z,1.92
2024-04-26T02:53:53.766Z,1.88
2024-04-26T02:54:53.703Z,1.86
2024-04-26T02:55:53.707Z,1.87
2024-04-26T02:56:53.718Z,1.88
2024-04-26T02:57:53.715Z,1.80
2024-04-26T02:58:53.715Z,1.77
2024-04-26T02:59:53.753Z,1.83
2024-04-26T03:00:53.750Z,1.75
2024-04-26T03:01:53.911Z,1.79
2024-04-26T03:02:53.742Z,1.73
2024-04-26T03:03:53.757Z,1.75
2024-04-26T03:04:53.715Z,1.71
2024-04-26T03:05:53.744Z,1.69
2024-04-26T03:06:53.707Z,1.69
2024-04-26T03:07:53.764Z,1.67
2024-04-26T03:08:53.789Z,1.64
2024-04-26T03:09:53.721Z,1.64
2024-04-26T03:10:53.725Z,1.63
2024-04-26T03:11:53.815Z,1.64
2024-04-26T03:12:53.837Z,1.60
2024-04-26T03:13:53.719Z,1.63
2024-04-26T03:14:53.783Z,1.59
2024-04-26T03:15:53.725Z,1.63
2024-04-26T03:16:53.834Z,1.60
2024-04-26T03:17:53.874Z,1.60
2024-04-26T03:18:54.122Z,1.62
2024-04-26T03:19:53.761Z,1.58
2024-04-26T03:20:53.809Z,1.60
2024-04-26T03:21:53.797Z,1.62
2024-04-26T03:22:53.829Z,1.59
2024-04-26T03:23:53.974Z,1.56
2024-04-26T03:24:53.857Z,1.60
2024-04-26T03:25:53.903Z,1.56
2024-04-26T03:26:53.923Z,1.56
2024-04-26T03:27:53.929Z,1.58
2024-04-26T03:28:53.943Z,1.58
2024-04-26T03:29:54.060Z,1.59
2024-04-26T03:30:53.997Z,1.56
2024-04-26T03:31:54.139Z,1.57
2024-04-26T03:32:54.098Z,1.58
2024-04-26T03:33:54.544Z,1.58
2024-04-26T03:34:54.116Z,1.56
2024-04-26T03:35:54.135Z,1.54
2024-04-26T03:36:54.117Z,1.57
2024-04-26T03:37:54.154Z,1.58
2024-04-26T03:38:54.204Z,1.57
2024-04-26T03:39:54.208Z,1.57
2024-04-26T03:40:54.220Z,1.56
2024-04-26T03:41:54.324Z,1.55
2024-04-26T03:42:54.252Z,1.54
2024-04-26T03:43:54.283Z,1.54
2024-04-26T03:44:54.344Z,1.56
2024-04-26T03:45:54.330Z,1.55
2024-04-26T03:46:54.361Z,1.55
2024-04-26T03:47:54.601Z,1.53
2024-04-26T03:48:54.527Z,1.53
2024-04-26T03:49:54.435Z,1.53
2024-04-26T03:50:54.489Z,1.52
2024-04-26T03:51:54.497Z,1.52
2024-04-26T03:52:54.512Z,1.48
2024-04-26T03:53:54.566Z,1.53
2024-04-26T03:54:54.583Z,1.47
2024-04-26T03:55:54.591Z,1.49
2024-04-26T03:56:54.650Z,1.44
2024-04-26T03:57:54.659Z,1.48
2024-04-26T03:58:54.690Z,1.50
2024-04-26T03:59:54.739Z,1.52
2024-04-26T04:00:54.776Z,1.51
2024-04-26T04:01:54.763Z,1.48
2024-04-26T04:02:54.883Z,1.52
2024-04-26T04:03:54.972Z,1.51
2024-04-26T04:04:54.874Z,1.50
2024-04-26T04:05:54.946Z,1.53
2024-04-26T04:06:54.936Z,1.53
2024-04-26T04:07:54.942Z,1.49
2024-04-26T04:08:55.015Z,1.52
2024-04-26T04:09:55.015Z,1.50
2024-04-26T04:10:55.031Z,1.52
2024-04-26T04:11:55.109Z,1.47
2024-04-26T04:12:55.148Z,1.54
2024-04-26T04:13:55.151Z,1.49
2024-04-26T04:14:55.194Z,1.50
2024-04-26T04:15:55.193Z,1.55
2024-04-26T04:16:55.255Z,1.51
2024-04-26T04:17:55.450Z,1.52
2024-04-26T04:18:55.364Z,1.52
2024-04-26T04:19:55.297Z,1.51
2024-04-26T04:20:55.381Z,1.53
2024-04-26T04:21:55.381Z,1.55
2024-04-26T04:22:55.411Z,1.53
2024-04-26T04:23:55.452Z,1.50
2024-04-26T04:24:55.448Z,1.53
2024-04-26T04:25:55.486Z,1.53
2024-04-26T04:26:55.557Z,1.53
2024-04-26T04:27:55.557Z,1.51
2024-04-26T04:28:55.584Z,1.56
2024-04-26T04:29:55.608Z,1.54
2024-04-26T04:30:55.666Z,1.51
2024-04-26T04:31:55.640Z,1.51
2024-04-26T04:32:55.852Z,1.55
2024-04-26T04:33:55.775Z,1.55
2024-04-26T04:34:55.775Z,1.55
2024-04-26T04:35:55.773Z,1.56
2024-04-26T04:36:55.679Z,1.54
2024-04-26T04:37:55.687Z,1.57
2024-04-26T04:38:55.769Z,1.56
2024-04-26T04:39:55.688Z,1.59
2024-04-26T04:40:55.703Z,1.55
2024-04-26T04:41:55.742Z,1.59
2024-04-26T04:43:03.331Z,0.50
2024-04-26T04:44:03.324Z,0.50
2024-04-26T04:45:03.383Z,0.50
2024-04-26T04:46:03.337Z,0.50
2024-04-26T04:47:03.402Z,0.50
2024-04-26T04:48:03.604Z,0.50
2024-04-26T04:49:03.722Z,0.52
2024-04-26T04:50:03.353Z,0.50
2024-04-26T04:51:03.540Z,0.52
2024-04-26T04:52:03.375Z,0.51
2024-04-26T04:53:03.344Z,0.51
2024-04-26T04:54:03.447Z,0.51
2024-04-26T04:55:03.344Z,0.52
2024-04-26T04:56:03.346Z,0.51
2024-04-26T04:57:03.514Z,0.51
2024-04-26T04:58:03.378Z,0.51
2024-04-26T04:59:03.363Z,0.51
2024-04-26T05:00:03.386Z,0.52
2024-04-26T05:01:03.421Z,0.51
2024-04-26T05:02:03.374Z,0.51
2024-04-26T05:03:03.532Z,0.50
2024-04-26T05:04:03.511Z,0.51
2024-04-26T05:05:03.583Z,0.52
2024-04-26T05:06:03.378Z,0.51
2024-04-26T05:07:03.399Z,0.50
2024-04-26T05:08:03.379Z,0.51
2024-04-26T05:09:03.470Z,0.51
2024-04-26T05:10:03.407Z,0.51
2024-04-26T05:11:03.423Z,0.50
2024-04-26T05:12:03.443Z,0.51
2024-04-26T05:13:03.444Z,0.50
2024-04-26T05:14:03.418Z,0.51
2024-04-26T05:15:03.486Z,0.51
2024-04-26T05:16:03.458Z,0.50
2024-04-26T05:17:03.513Z,0.51
2024-04-26T05:18:03.628Z,0.51
2024-04-26T05:19:03.712Z,0.50
2024-04-26T05:20:03.594Z,0.51
2024-04-26T05:21:04.300Z,0.51
2024-04-26T05:22:03.677Z,0.50
2024-04-26T05:23:03.718Z,0.50
2024-04-26T05:24:03.929Z,0.50
2024-04-26T05:25:03.789Z,0.50
2024-04-26T05:26:03.827Z,0.50
2024-04-26T05:27:04.107Z,0.50
2024-04-26T05:28:03.927Z,0.51
2024-04-26T05:29:04.333Z,0.51
2024-04-26T05:30:03.964Z,0.50
2024-04-26T05:31:03.987Z,0.51
2024-04-26T05:32:04.199Z,0.50
2024-04-26T05:33:04.421Z,0.52
2024-04-26T05:34:04.238Z,0.50
2024-04-26T05:35:04.137Z,0.50
2024-04-26T05:36:04.299Z,0.50
2024-04-26T05:37:04.192Z,0.50
2024-04-26T05:38:04.236Z,0.50
2024-04-26T05:39:04.313Z,0.50
2024-04-26T05:40:04.283Z,0.50
2024-04-26T05:41:04.316Z,0.50
2024-04-26T05:42:04.555Z,0.50
2024-04-26T05:43:04.356Z,0.49
2024-04-26T05:44:04.371Z,0.52
2024-04-26T05:45:04.567Z,0.50
2024-04-26T05:46:04.442Z,0.50
2024-04-26T05:47:04.515Z,0.50
2024-04-26T05:48:04.560Z,0.50
2024-04-26T05:49:04.658Z,0.51
2024-04-26T05:50:04.476Z,0.52
2024-04-26T05:51:04.631Z,0.50
2024-04-26T05:52:04.553Z,0.51
2024-04-26T05:53:04.559Z,0.51
2024-04-26T05:54:04.597Z,0.50
2024-04-26T05:55:04.557Z,0.50
2024-04-26T05:56:04.573Z,0.51
2024-04-26T05:57:04.844Z,0.52
2024-04-26T05:58:04.651Z,0.51
2024-04-26T05:59:04.671Z,0.52
2024-04-26T06:00:04.880Z,0.54
2024-04-26T06:01:04.843Z,0.54
2024-04-26T06:02:04.859Z,0.54
2024-04-26T06:03:05.041Z,0.54
2024-04-26T06:04:05.252Z,0.56
2024-04-26T06:05:05.072Z,0.56
2024-04-26T06:06:05.093Z,0.56
2024-04-26T06:07:05.040Z,0.59
2024-04-26T06:08:05.035Z,0.64
2024-04-26T06:09:05.085Z,0.73
2024-04-26T06:10:05.035Z,0.77
2024-04-26T06:11:05.156Z,0.81
2024-04-26T06:12:05.342Z,0.84
2024-04-26T06:13:13.731Z,0.83
2024-04-26T06:14:06.194Z,0.83
2024-04-26T06:15:05.203Z,0.83
2024-04-26T06:16:05.129Z,0.84
2024-04-26T06:17:05.180Z,0.85
2024-04-26T06:18:05.231Z,0.90
2024-04-26T06:19:05.330Z,0.86
2024-04-26T06:20:05.136Z,0.90
2024-04-26T06:21:05.226Z,0.89
2024-04-26T06:22:05.229Z,0.89
2024-04-26T06:23:05.200Z,0.89
2024-04-26T06:24:05.261Z,0.90
2024-04-26T06:25:05.236Z,0.91
2024-04-26T06:26:05.220Z,0.93
2024-04-26T06:27:05.345Z,0.97
2024-04-26T06:28:05.236Z,1.03
2024-04-26T06:29:05.218Z,0.98
2024-04-26T06:30:05.307Z,1.00
2024-04-26T06:31:05.271Z,1.01
2024-04-26T06:32:05.398Z,1.03
2024-04-26T06:33:05.561Z,1.04
2024-04-26T06:34:05.573Z,1.06
2024-04-26T06:35:07.455Z,1.04
2024-04-26T06:36:05.636Z,1.03
2024-04-26T06:37:05.571Z,1.03
2024-04-26T06:38:05.691Z,1.01
2024-04-26T06:39:05.708Z,1.00
2024-04-26T06:40:05.568Z,0.94
2024-04-26T06:41:05.613Z,0.89
2024-04-26T06:42:05.694Z,0.82
2024-04-26T06:43:05.626Z,0.75
2024-04-26T06:44:12.525Z,0.71
2024-04-26T06:45:06.798Z,0.67
2024-04-26T06:46:05.596Z,0.63
2024-04-26T06:47:05.680Z,0.58
2024-04-26T06:48:05.675Z,0.56
2024-04-26T06:49:05.820Z,0.53
2024-04-26T06:50:05.706Z,0.52
2024-04-26T06:51:05.744Z,0.50
2024-04-26T06:52:05.632Z,0.50
2024-04-26T06:53:05.613Z,0.51
2024-04-26T06:54:05.658Z,0.50
2024-04-26T06:55:05.613Z,0.50
2024-04-26T06:56:05.653Z,0.51
2024-04-26T06:57:05.742Z,0.50
2024-04-26T06:58:05.741Z,0.50
2024-04-26T06:59:05.756Z,0.51
2024-04-26T07:00:05.935Z,0.53
2024-04-26T07:01:08.196Z,0.52
2024-04-26T07:02:05.985Z,0.52
2024-04-26T07:03:06.012Z,0.53
2024-04-26T07:04:06.184Z,0.53
2024-04-26T07:05:05.908Z,0.53
2024-04-26T07:06:05.895Z,0.53
2024-04-26T07:07:05.852Z,0.53
2024-04-26T07:08:05.848Z,0.53
2024-04-26T07:09:05.955Z,0.54
2024-04-26T07:10:05.883Z,0.53
2024-04-26T07:11:05.868Z,0.55
2024-04-26T07:12:06.080Z,0.55
2024-04-26T07:13:05.865Z,0.56
2024-04-26T07:14:05.893Z,0.56
2024-04-26T07:16:28.756Z,0.57
2024-04-26T07:17:05.899Z,0.57
2024-04-26T07:18:06.001Z,0.58
2024-04-26T07:19:05.989Z,0.60
2024-04-26T07:20:05.951Z,0.64
2024-04-26T07:21:05.913Z,0.68
2024-04-26T07:22:05.911Z,0.71
2024-04-26T07:23:05.902Z,0.70
2024-04-26T07:24:05.969Z,0.67
2024-04-26T07:25:05.904Z,0.66
2024-04-26T07:26:05.918Z,0.66
2024-04-26T07:27:05.972Z,0.66
2024-04-26T07:28:05.949Z,0.62
2024-04-26T07:29:18.368Z,0.60
2024-04-26T07:30:07.147Z,0.53
2024-04-26T07:31:05.947Z,0.46
2024-04-26T07:32:05.996Z,0.39
2024-04-26T07:33:06.140Z,0.33
2024-04-26T07:34:06.380Z,0.27
2024-04-26T07:35:05.968Z,0.21
2024-04-26T07:36:06.012Z,0.17
2024-04-26T07:37:05.958Z,0.16
2024-04-26T07:38:05.946Z,0.16
2024-04-26T07:39:06.054Z,0.16
2024-04-26T07:40:06.078Z,0.16
2024-04-26T07:41:05.979Z,0.16
2024-04-26T07:42:06.292Z,0.16
2024-04-26T07:43:05.978Z,0.20
2024-04-26T07:44:05.960Z,0.25
2024-04-26T07:45:06.186Z,0.32
2024-04-26T07:46:05.980Z,0.41
2024-04-26T07:47:06.047Z,0.49
2024-04-26T07:48:06.206Z,0.52
2024-04-26T07:49:09.293Z,0.56
2024-04-26T07:50:06.231Z,0.56
2024-04-26T07:51:06.226Z,0.57
2024-04-26T07:52:06.142Z,0.60
2024-04-26T07:53:06.745Z,0.57
2024-04-26T07:54:06.326Z,0.59
2024-04-26T07:55:06.185Z,0.63
2024-04-26T07:56:06.303Z,0.72
2024-04-26T07:57:06.279Z,0.85
2024-04-26T07:58:06.197Z,0.57
2024-04-26T07:59:06.193Z,0.61
2024-04-26T08:00:06.322Z,0.67
2024-04-26T08:01:06.176Z,0.79
2024-04-26T08:02:06.174Z,0.98
2024-04-26T08:03:06.435Z,1.00
2024-04-26T08:04:06.449Z,1.00
2024-04-26T08:05:06.349Z,1.01
2024-04-26T08:06:06.266Z,1.08
2024-04-26T08:07:06.198Z,1.08
2024-04-26T08:08:06.189Z,1.08
2024-04-26T08:09:06.249Z,1.15
2024-04-26T08:10:06.201Z,1.16
2024-04-26T08:11:06.354Z,1.21
2024-04-26T08:12:06.530Z,1.25
2024-04-26T08:13:06.299Z,1.28
2024-04-26T08:14:06.467Z,1.26
2024-04-26T08:15:06.469Z,1.32
2024-04-26T08:16:06.462Z,1.32
2024-04-26T08:17:06.556Z,1.33
2024-04-26T08:18:06.647Z,1.29
2024-04-26T08:19:06.756Z,1.29
2024-04-26T08:20:06.492Z,1.28
2024-04-26T08:21:06.723Z,1.30
2024-04-26T08:22:06.499Z,1.29
2024-04-26T08:23:06.496Z,1.32
2024-04-26T08:24:06.802Z,1.35
2024-04-26T08:25:09.323Z,1.34
2024-04-26T08:26:07.523Z,1.34
2024-04-26T08:27:06.583Z,1.35
2024-04-26T08:28:06.520Z,1.36
2024-04-26T08:29:06.527Z,1.41
2024-04-26T08:30:06.615Z,1.41
2024-04-26T08:31:06.519Z,1.45
2024-04-26T08:32:06.553Z,1.51
2024-04-26T08:33:08.139Z,1.51
2024-04-26T08:34:06.813Z,1.52
2024-04-26T08:35:06.643Z,1.55
2024-04-26T08:36:06.782Z,1.53
2024-04-26T08:37:06.612Z,1.41
2024-04-26T08:38:06.508Z,1.24
2024-04-26T08:39:06.643Z,1.13
2024-04-26T08:40:06.655Z,0.99
2024-04-26T08:41:06.542Z,0.87
2024-04-26T08:42:06.629Z,0.75
2024-04-26T08:43:06.555Z,0.69
2024-04-26T08:44:06.534Z,0.55
2024-04-26T08:45:06.590Z,0.51
2024-04-26T08:46:06.545Z,0.50
2024-04-26T08:47:06.575Z,0.50
2024-04-26T08:48:06.692Z,0.50
2024-04-26T08:49:06.631Z,0.51
2024-04-26T08:50:06.547Z,0.50
2024-04-26T08:51:06.612Z,0.51
2024-04-26T08:52:06.547Z,0.51
2024-04-26T08:53:06.559Z,0.52
2024-04-26T08:54:06.618Z,0.53
2024-04-26T08:55:06.540Z,0.58
2024-04-26T08:56:06.561Z,0.60
2024-04-26T08:57:06.687Z,0.65
2024-04-26T08:58:06.549Z,0.66
2024-04-26T08:59:06.595Z,0.67
2024-04-26T09:00:06.654Z,0.69
2024-04-26T09:01:06.698Z,0.69
2024-04-26T09:02:06.633Z,0.69
2024-04-26T09:03:06.721Z,0.69
2024-04-26T09:04:06.693Z,0.72
2024-04-26T09:05:06.781Z,0.71
2024-04-26T09:06:06.833Z,0.70
2024-04-26T09:07:06.594Z,0.68
2024-04-26T09:08:06.593Z,0.65
2024-04-26T09:09:06.884Z,0.64
2024-04-26T09:10:06.584Z,0.62
2024-04-26T09:11:06.637Z,0.60
2024-04-26T09:12:06.724Z,0.56
2024-04-26T09:13:06.651Z,0.56
2024-04-26T09:14:06.683Z,0.52
2024-04-26T09:15:06.690Z,0.51
2024-04-26T09:16:06.594Z,0.51
2024-04-26T09:17:06.692Z,0.50
2024-04-26T09:18:06.891Z,0.52
2024-04-26T09:19:06.895Z,0.50
2024-04-26T09:20:06.836Z,0.51
2024-04-26T09:21:07.026Z,0.51
2024-04-26T09:22:06.975Z,0.50
2024-04-26T09:23:07.073Z,0.51
2024-04-26T09:24:07.216Z,0.50
2024-04-26T09:25:07.171Z,0.52
2024-04-26T09:26:07.228Z,0.52
2024-04-26T09:27:07.431Z,0.51
2024-04-26T09:28:07.332Z,0.53
2024-04-26T09:29:07.385Z,0.53
2024-04-26T09:30:07.632Z,0.54
2024-04-26T09:31:07.475Z,0.55
2024-04-26T09:32:16.586Z,0.55
2024-04-26T09:33:09.467Z,0.55
2024-04-26T09:34:07.626Z,0.55
2024-04-26T09:35:07.768Z,0.56
2024-04-26T09:36:08.031Z,0.58
2024-04-26T09:37:07.556Z,0.59
2024-04-26T09:38:07.661Z,0.55
2024-04-26T09:39:07.607Z,0.56
2024-04-26T09:40:07.601Z,0.56
2024-04-26T09:41:07.679Z,0.56
2024-04-26T09:42:07.595Z,0.56
2024-04-26T09:43:07.595Z,0.59
2024-04-26T09:44:07.574Z,0.59
2024-04-26T09:45:07.753Z,0.56
2024-04-26T09:46:07.547Z,0.56
2024-04-26T09:47:07.648Z,0.50
2024-04-26T09:48:08.398Z,0.49
2024-04-26T09:49:07.666Z,0.51
2024-04-26T09:50:07.586Z,0.52
2024-04-26T09:51:07.633Z,0.56
2024-04-26T09:52:07.564Z,0.57
2024-04-26T09:53:07.586Z,0.59
2024-04-26T09:54:07.784Z,0.66
2024-04-26T09:55:07.673Z,0.71
2024-04-26T09:56:07.698Z,0.76
2024-04-26T09:57:07.851Z,0.85
2024-04-26T09:58:07.766Z,0.95
2024-04-26T09:59:07.811Z,1.06
2024-04-26T10:00:07.854Z,1.09
2024-04-26T10:01:07.891Z,1.10
2024-04-26T10:02:07.947Z,1.13
2024-04-26T10:03:07.939Z,1.20
2024-04-26T10:04:08.144Z,1.40
2024-04-26T10:05:07.919Z,1.75
2024-04-26T10:06:07.841Z,1.11
2024-04-26T10:07:07.853Z,1.21
2024-04-26T10:08:07.853Z,1.42
2024-04-26T10:09:07.936Z,1.88
2024-04-26T10:10:07.871Z,2.89
2024-04-26T10:11:07.927Z,3.29
2024-04-26T10:12:07.986Z,3.51
2024-04-26T10:13:07.859Z,3.68
2024-04-26T10:14:07.870Z,3.96
2024-04-26T10:15:07.942Z,4.16
2024-04-26T10:16:07.884Z,4.41
2024-04-26T10:17:07.958Z,4.68
2024-04-26T10:18:09.039Z,4.88
2024-04-26T10:19:08.092Z,4.76
2024-04-26T10:20:07.884Z,4.85
2024-04-26T10:21:08.006Z,4.80
2024-04-26T10:22:07.924Z,4.81
2024-04-26T10:23:07.889Z,4.84
2024-04-26T10:24:08.002Z,4.88
2024-04-26T10:25:07.895Z,4.82
2024-04-26T10:26:07.919Z,4.96
2024-04-26T10:27:08.055Z,5.15
2024-04-26T10:28:07.899Z,5.30
2024-04-26T10:29:07.898Z,5.34
2024-04-26T10:30:08.014Z,5.50
2024-04-26T10:31:07.898Z,5.67
2024-04-26T10:32:07.904Z,5.97
2024-04-26T10:33:08.144Z,6.05
2024-04-26T10:34:08.016Z,6.24
2024-04-26T10:35:09.439Z,6.24
2024-04-26T10:36:08.303Z,6.27
2024-04-26T10:37:07.918Z,6.26
2024-04-26T10:38:07.919Z,6.27
2024-04-26T10:39:08.356Z,6.10
2024-04-26T10:40:07.909Z,6.01
2024-04-26T10:41:07.910Z,5.78
2024-04-26T10:42:07.989Z,5.60
2024-04-26T10:43:08.035Z,5.52
2024-04-26T10:44:07.922Z,5.39
2024-04-26T10:45:08.121Z,5.26
2024-04-26T10:46:07.936Z,5.12
2024-04-26T10:47:08.081Z,5.06
2024-04-26T10:48:08.078Z,4.93
2024-04-26T10:49:08.154Z,4.72
2024-04-26T10:50:08.145Z,4.49
2024-04-26T10:51:08.091Z,4.34
2024-04-26T10:52:07.927Z,4.14
2024-04-26T10:53:08.173Z,4.10
2024-04-26T10:54:08.039Z,3.82
2024-04-26T10:55:07.949Z,3.77
2024-04-26T10:56:07.950Z,3.55
2024-04-26T10:57:08.018Z,3.38
2024-04-26T10:58:07.937Z,3.27
2024-04-26T10:59:07.940Z,3.10
2024-04-26T11:00:08.209Z,3.06
2024-04-26T11:01:08.002Z,2.88
2024-04-26T11:02:07.951Z,2.77
2024-04-26T11:03:08.035Z,2.68
2024-04-26T11:04:08.134Z,2.59
2024-04-26T11:05:07.988Z,2.49
2024-04-26T11:06:08.035Z,2.38
2024-04-26T11:07:07.955Z,2.25
2024-04-26T11:08:07.978Z,2.21
2024-04-26T11:09:08.046Z,2.14
2024-04-26T11:10:08.019Z,2.05
2024-04-26T11:11:08.063Z,1.97
2024-04-26T11:12:08.001Z,1.88
2024-04-26T11:13:07.981Z,1.83
2024-04-26T11:14:07.996Z,1.76
2024-04-26T11:15:08.080Z,1.72
2024-04-26T11:16:07.982Z,1.68
2024-04-26T11:17:07.982Z,1.73
2024-04-26T11:18:08.187Z,1.66
2024-04-26T11:19:08.146Z,1.71
2024-04-26T11:20:08.106Z,1.83
2024-04-26T11:21:08.086Z,1.82
2024-04-26T11:22:08.139Z,1.93
2024-04-26T11:23:07.992Z,2.04
2024-04-26T11:24:08.134Z,2.11
2024-04-26T11:25:08.157Z,2.19
2024-04-26T11:26:08.036Z,2.27
2024-04-26T11:27:08.066Z,2.43
2024-04-26T11:28:08.017Z,2.49
2024-04-26T11:29:08.013Z,2.59
2024-04-26T11:30:08.195Z,2.76
2024-04-26T11:31:08.044Z,2.86
2024-04-26T11:32:08.017Z,3.00
2024-04-26T11:33:12.336Z,3.07
2024-04-26T11:34:09.158Z,3.07
2024-04-26T11:35:08.147Z,3.10
2024-04-26T11:36:08.187Z,3.19
2024-04-26T11:37:08.029Z,3.44
2024-04-26T11:38:08.035Z,3.72
2024-04-26T11:39:08.151Z,4.01
2024-04-26T11:40:08.048Z,4.05
2024-04-26T11:41:08.050Z,4.17
2024-04-26T11:42:08.092Z,4.44
2024-04-26T11:43:08.060Z,4.60
2024-04-26T11:44:08.068Z,4.76
2024-04-26T11:45:08.118Z,4.88
2024-04-26T11:46:08.074Z,5.00
2024-04-26T11:47:08.067Z,5.10
2024-04-26T11:48:08.176Z,5.27
2024-04-26T11:49:08.349Z,5.33
2024-04-26T11:50:08.204Z,5.47
2024-04-26T11:51:08.951Z,5.75
2024-04-26T11:52:08.060Z,5.86
2024-04-26T11:53:08.067Z,6.02
2024-04-26T11:54:08.162Z,6.16
2024-04-26T11:55:08.177Z,6.28
2024-04-26T11:56:08.114Z,6.36
2024-04-26T11:57:09.850Z,6.51
2024-04-26T11:58:08.082Z,6.60
2024-04-26T11:59:08.066Z,6.75
2024-04-26T12:00:08.125Z,6.90
2024-04-26T12:01:08.082Z,7.18
2024-04-26T12:02:08.074Z,7.11
2024-04-26T12:03:09.405Z,7.05
2024-04-26T12:04:08.163Z,7.05
2024-04-26T12:05:08.095Z,7.06
2024-04-26T12:06:08.116Z,7.11
2024-04-26T12:07:08.094Z,7.19
2024-04-26T12:08:08.128Z,7.55
2024-04-26T12:09:10.205Z,7.81
2024-04-26T12:10:08.107Z,7.88
2024-04-26T12:11:08.242Z,7.74
2024-04-26T12:12:08.130Z,8.02
2024-04-26T12:13:08.103Z,7.92
2024-04-26T12:14:08.112Z,7.94
2024-04-26T12:15:09.895Z,7.84
2024-04-26T12:16:08.110Z,7.85
2024-04-26T12:17:08.867Z,7.88
2024-04-26T12:18:08.205Z,7.98
2024-04-26T12:19:08.226Z,8.08
2024-04-26T12:20:08.184Z,8.10
2024-04-26T12:21:08.124Z,8.09
2024-04-26T12:22:08.099Z,7.94
2024-04-26T12:23:08.109Z,8.00
2024-04-26T12:24:08.173Z,8.08
2024-04-26T12:25:08.125Z,7.94
2024-04-26T12:26:08.144Z,8.13
2024-04-26T12:27:09.276Z,7.97
2024-04-26T12:28:08.136Z,7.96
2024-04-26T12:29:08.162Z,7.82
2024-04-26T12:30:08.306Z,8.02
2024-04-26T12:31:08.134Z,7.99
2024-04-26T12:32:08.183Z,8.09
2024-04-26T12:33:09.274Z,8.03
2024-04-26T12:34:08.329Z,8.11
2024-04-26T12:35:08.249Z,8.30
2024-04-26T12:36:08.349Z,8.29
2024-04-26T12:37:08.154Z,8.30
2024-04-26T12:38:08.141Z,7.97
2024-04-26T12:39:09.497Z,7.84
2024-04-26T12:40:08.357Z,7.67
2024-04-26T12:41:08.315Z,7.71
2024-04-26T12:42:08.373Z,7.89
2024-04-26T12:43:08.346Z,7.87
2024-04-26T12:44:08.382Z,7.96
2024-04-26T12:45:10.120Z,7.72
2024-04-26T12:46:08.427Z,7.55
2024-04-26T12:47:08.476Z,7.54
2024-04-26T12:48:08.523Z,7.62
2024-04-26T12:49:08.564Z,7.75
2024-04-26T12:50:08.439Z,7.81
2024-04-26T12:51:08.500Z,7.71
2024-04-26T12:52:08.431Z,7.40
2024-04-26T12:53:08.434Z,7.38
2024-04-26T12:54:08.476Z,7.31
2024-04-26T12:55:08.465Z,7.23
2024-04-26T12:56:08.438Z,7.11
2024-04-26T12:57:08.466Z,7.23
2024-04-26T12:58:08.452Z,7.10
2024-04-26T12:59:08.458Z,6.78
2024-04-26T13:00:08.604Z,6.65
2024-04-26T13:01:08.493Z,6.73
2024-04-26T13:02:08.527Z,6.79
2024-04-26T13:03:09.883Z,6.69
2024-04-26T13:04:08.827Z,6.69
2024-04-26T13:05:08.693Z,6.68
2024-04-26T13:06:08.542Z,6.57
2024-04-26T13:07:08.464Z,6.58
2024-04-26T13:08:08.453Z,6.38
2024-04-26T13:09:08.505Z,6.60
2024-04-26T13:10:08.465Z,6.45
2024-04-26T13:11:08.532Z,6.53
2024-04-26T13:12:08.469Z,6.66
2024-04-26T13:13:08.495Z,6.81
2024-04-26T13:14:08.487Z,6.66
2024-04-26T13:15:08.617Z,6.58
2024-04-26T13:16:08.480Z,6.73
2024-04-26T13:17:08.559Z,6.58
2024-04-26T13:18:09.452Z,6.43
2024-04-26T13:19:08.647Z,6.22
2024-04-26T13:20:08.628Z,6.26